Terminal Aerodrome Forecast
Issued by NWS Pocatello, ID

Home | Current Version | Previous Version | Text Only | Print | Product List | Glossary On
Versions: 1 2 3 4 5 6 7 8 9 10 11 12
000
FTUS45 KPIH 291100
TAFIDA
TAF
KIDA 291120Z 2912/3012 22007KT P6SM SCT100
     FM291900 22012G22KT P6SM FEW100
     FM300200 21008KT P6SM BKN070=

USA.gov is the U.S. government's official web portal to all federal, state and local government web resources and services.